createdAt,value
2019-03-17T00:00:53.185Z,17.07
2019-03-17T00:15:52.570Z,18.30
2019-03-17T00:45:53.586Z,14.78
2019-03-17T01:00:51.508Z,14.55
2019-03-17T01:15:53.475Z,12.10
2019-03-17T01:30:51.822Z,15.05
2019-03-17T01:45:50.704Z,16.57
2019-03-17T02:15:50.721Z,14.87
2019-03-17T02:30:52.915Z,15.28
2019-03-17T02:45:53.076Z,13.40
2019-03-17T03:00:50.870Z,13.60
2019-03-17T03:15:52.898Z,14.98
2019-03-17T03:30:51.293Z,12.68
2019-03-17T03:45:51.232Z,12.60
2019-03-17T04:00:51.105Z,11.83
2019-03-17T04:15:50.994Z,13.25
2019-03-17T04:30:51.422Z,11.35
2019-03-17T04:45:51.418Z,12.47
2019-03-17T05:00:51.283Z,16.35
2019-03-17T05:15:51.089Z,14.80
2019-03-17T05:30:50.589Z,12.63
2019-03-17T05:45:51.481Z,12.10
2019-03-17T06:00:51.895Z,11.80
2019-03-17T06:15:53.833Z,12.93
2019-03-17T06:30:50.879Z,10.80
2019-03-17T06:45:50.695Z,10.80
2019-03-17T07:00:50.602Z,9.98
2019-03-17T07:15:50.580Z,10.05
2019-03-17T07:30:50.927Z,10.32
2019-03-17T07:45:52.991Z,9.58
2019-03-17T08:00:50.582Z,8.25
2019-03-17T08:15:50.732Z,11.88
2019-03-17T08:30:53.508Z,9.83
2019-03-17T08:45:51.665Z,9.43
2019-03-17T09:00:51.548Z,12.80
2019-03-17T09:15:50.913Z,13.22
2019-03-17T09:30:51.219Z,11.15
2019-03-17T09:45:53.331Z,9.05
2019-03-17T10:00:53.396Z,3.02
2019-03-17T10:15:51.091Z,3.60
2019-03-17T10:30:50.613Z,5.07
2019-03-17T10:45:50.643Z,3.00
2019-03-17T11:00:52.585Z,4.83
2019-03-17T11:15:53.904Z,3.60
2019-03-17T11:30:57.367Z,4.25
2019-03-17T11:45:52.446Z,3.55
2019-03-17T12:00:51.318Z,3.40
2019-03-17T12:15:51.021Z,4.53
2019-03-17T12:30:52.709Z,3.55
2019-03-17T12:45:51.431Z,4.17
2019-03-17T13:00:51.025Z,3.42
2019-03-17T13:15:53.152Z,3.80
2019-03-17T13:30:51.470Z,3.60
2019-03-17T13:45:51.214Z,2.92
2019-03-17T14:15:52.349Z,4.65
2019-03-17T14:30:50.761Z,11.28
2019-03-17T14:45:52.155Z,5.62
2019-03-17T15:00:51.711Z,4.72
2019-03-17T15:16:02.194Z,5.25
2019-03-17T15:31:09.705Z,4.30
2019-03-17T15:45:51.012Z,6.35
2019-03-17T16:00:55.390Z,6.22
2019-03-17T16:15:51.333Z,11.93
2019-03-17T16:30:51.141Z,8.60
2019-03-17T16:45:51.174Z,6.53
2019-03-17T17:00:51.082Z,10.05
2019-03-17T17:15:51.108Z,12.35
2019-03-17T17:30:50.360Z,9.90
2019-03-17T17:45:51.376Z,12.05
2019-03-17T18:00:52.179Z,14.95
2019-03-17T18:15:50.163Z,21.75
2019-03-17T18:30:55.773Z,25.32
2019-03-17T18:45:52.361Z,20.90
2019-03-17T19:00:53.914Z,15.18
2019-03-17T19:15:52.109Z,26.77
2019-03-17T19:30:54.088Z,26.75
2019-03-17T19:45:50.656Z,24.72
2019-03-17T20:00:53.072Z,28.75
2019-03-17T20:15:51.238Z,27.05
2019-03-17T20:30:54.110Z,29.35
2019-03-17T20:45:51.007Z,26.68
2019-03-17T21:00:53.527Z,25.60
2019-03-17T21:15:51.620Z,29.90
2019-03-17T21:30:53.013Z,29.87
2019-03-17T21:45:51.453Z,29.12
2019-03-17T22:00:53.907Z,32.90
2019-03-17T22:15:51.485Z,30.75
2019-03-17T22:30:51.300Z,28.92
2019-03-17T22:45:51.342Z,30.85
2019-03-17T23:00:51.592Z,29.42
2019-03-17T23:15:51.321Z,20.65
2019-03-17T23:30:51.516Z,21.02
2019-03-17T23:45:51.619Z,19.67
